Collins, Georgia
Current Conditions -  °F | °C
As of 2:15 PM on Monday 22 Dec 2014 (Local Time) from KCWV Reporting Station
Light Rain Light Rain  
Wind Chill: 46°   Ceiling: 400
Heat Index: 48°   Visibility: 10mi
Dew Point: 48°   Wind: 5mph
Humidity: 100%   Direction: 360°N
Pressure: 29.95"   Gusts: NA
Location:  32.18°N, 82.11°W
Report Text: KCWV 221915Z AUTO 36004KT 10SM -RA BKN004 OVC008 09/09 A2995 RMK AO2 LTG DSNT S
Loading
Personal Weather Stations






























Interactive Weather Map New forecast layout! Learn more

10-Day Weather Forecast

Advertisements
Track Severe Weather on mobile